Flight Track Log - Related Links

Times and Time Zones

All times are in EDT time to prevent confusion due to time zone crossing. See the ASH2638 flight status page for this flight to view local times or setup timezone preferences in your user account.

Time Position Orientation Groundspeed Altitude Reporting Facility
EDT Latitude Longitude Course Direction KTS MPH feet Rate Location/Type
Fri 05:38:15 PM 33.4333 -112.0500 273° West 191 220 1,800  Level Phoenix TRACON
Fri 05:38:36 PM 33.4258 -112.0572 219° Southwest 181 208 2,200 1,500 Climbing Albuquerque Center
Fri 05:39:39 PM 33.4031 -112.1269 249° West 221 254 3,900 2,032 Climbing Albuquerque Center
Fri 05:40:40 PM 33.3875 -112.2156 258° West 271 312 6,400 2,537 Climbing Albuquerque Center
Fri 05:41:00 PM 33.4360 -112.4470 273° West  Level FlightAware Approximate
Fri 05:41:42 PM 33.3967 -112.3078 277° West 278 320 9,100  Level Albuquerque Center
Fri 05:42:00 PM 33.4405 -112.5586 273° West  Level FlightAware Approximate
Fri 05:42:44 PM 33.4100 -112.4294 278° West 312 359 11,300  Level Albuquerque Center
Fri 05:43:00 PM 33.4450 -112.6702 273° West  Level FlightAware Approximate
Fri 05:43:46 PM 33.4228 -112.5397 278° West 333 383 13,600  Level Albuquerque Center
Fri 05:44:48 PM 33.4344 -112.6497 277° West 347 399 16,000 2,468 Climbing Albuquerque Center
Fri 05:45:50 PM 33.4467 -112.7628 277° West 346 398 18,700 1,742 Climbing Albuquerque Center
Fri 05:46:52 PM 33.4625 -112.8792 279° West 352 405 19,600 1,161 Climbing Albuquerque Center
Fri 05:47:54 PM 33.4931 -113.0342 283° West 390 449 21,100 1,839 Climbing Albuquerque Center
Fri 05:48:56 PM 33.5197 -113.1644 284° West 403 464 23,400 1,984 Climbing Albuquerque Center
Fri 05:49:58 PM 33.5431 -113.2908 283° West 395 455 25,200 1,500 Climbing Albuquerque Center
Fri 05:51:00 PM 33.5669 -113.4189 283° West 395 455 26,500 1,210 Climbing Albuquerque Center
Fri 05:52:02 PM 33.5919 -113.5492 283° West 399 459 27,700 1,210 Climbing Albuquerque Center
Fri 05:53:04 PM 33.6150 -113.7103 280° West 408 470 29,000 1,065 Climbing Albuquerque Center
Fri 05:54:06 PM 33.6261 -113.8339 276° West 416 479 29,900 823 Climbing Albuquerque Center
Fri 05:55:08 PM 33.6403 -113.9767 277° West 426 490 30,700 823 Climbing Albuquerque Center
Fri 05:56:10 PM 33.6603 -114.1492 278° West 434 499 31,600 629 Climbing Albuquerque Center
Fri 05:57:12 PM 33.6736 -114.2822 277° West 443 510 32,000 194 Climbing Albuquerque Center
Fri 05:58:14 PM 33.6883 -114.4339 277° West 454 522 32,000  Level Albuquerque Center
Fri 05:59:30 PM 33.7089 -114.6283 277° West 454 522 32,000  Level Los Angeles Center
Fri 06:00:33 PM 33.7256 -114.8039 277° West 445 512 32,000 -48 Level Los Angeles Center
Fri 06:01:35 PM 33.7392 -114.9514 276° West 444 511 31,900 -629 Descending Los Angeles Center
Fri 06:02:37 PM 33.7533 -115.0994 277° West 447 514 30,700 -1,065 Descending Los Angeles Center
Fri 06:03:39 PM 33.7683 -115.2489 277° West 450 518 29,700 -968 Descending Los Angeles Center
Fri 06:04:41 PM 33.7800 -115.3947 276° West 442 509 28,700 -968 Descending Los Angeles Center
Fri 06:05:43 PM 33.7939 -115.5386 277° West 437 503 27,700 -1,065 Descending Los Angeles Center
Fri 06:06:45 PM 33.8092 -115.7075 276° West 426 490 26,500 -1,065 Descending Los Angeles Center
Fri 06:07:47 PM 33.8217 -115.8483 276° West 425 489 25,500 -1,210 Descending Los Angeles Center
Fri 06:08:49 PM 33.8325 -115.9903 275° West 428 493 24,000 -1,488 Descending Los Angeles Center
Fri 06:09:52 PM 33.8456 -116.1328 276° West 431 496 22,400 -1,536 Descending Los Angeles Center
Fri 06:10:54 PM 33.8567 -116.2708 276° West 413 475 20,800 -1,790 Descending Los Angeles Center
Fri 06:11:56 PM 33.8703 -116.4269 276° West 394 453 18,700 -1,935 Descending Los Angeles Center
Fri 06:12:58 PM 33.8764 -116.5528 273° West 381 438 16,800 -1,790 Descending Los Angeles Center
Fri 06:14:00 PM 33.8822 -116.6772 273° West 376 433 15,000 -1,355 Descending Los Angeles Center
Fri 06:15:02 PM 33.8886 -116.7969 274° West 366 421 14,000 -919 Descending Los Angeles Center
Fri 06:16:04 PM 33.9058 -116.8950 282° West 312 359 13,100 -1,452 Descending Los Angeles Center
Fri 06:17:06 PM 33.9411 -117.0072 291° West 299 344 11,000 -1,955 Descending Los Angeles Center
Fri 06:18:16 PM 33.9833 -117.1167 295° West 298 343 8,800 -1,800 Descending Southern California TRACON
Fri 06:19:16 PM 34.0000 -117.2000 284° West 290 334 7,100 -1,800 Descending Southern California TRACON
Fri 06:20:16 PM 34.0333 -117.3000 292° West 280 322 5,200 -1,474 Descending Southern California TRACON
Fri 06:21:10 PM 34.0500 -117.3667 287° West 268 308 4,300 -800 Descending Southern California TRACON
Fri 06:22:16 PM 34.0500 -117.4500 270° West 199 229 3,600 -952 Descending Southern California TRACON
Fri 06:23:16 PM 34.0500 -117.5167 270° West 175 201 2,300 -1,091 Descending Southern California TRACON
Fri 06:24:17 PM 34.0500 -117.5667 270° West 139 160 1,400 -885 Descending Southern California TRACON

Login

Don't have an account? Register now (free) for customized features, flight alerts, and more!